createdAt,value
2023-05-22T00:00:20.588Z,17.43
2023-05-22T00:03:11.291Z,17.50
2023-05-22T00:06:02.144Z,17.51
2023-05-22T00:08:51.510Z,17.50
2023-05-22T00:11:40.963Z,17.50
2023-05-22T00:14:30.391Z,17.44
2023-05-22T00:17:20.595Z,17.50
2023-05-22T00:20:11.357Z,17.42
2023-05-22T00:23:03.267Z,17.49
2023-05-22T00:25:52.546Z,17.48
2023-05-22T00:28:41.883Z,17.40
2023-05-22T00:31:31.259Z,17.39
2023-05-22T00:34:20.989Z,17.37
2023-05-22T00:37:10.943Z,17.27
2023-05-22T00:40:01.558Z,17.24
2023-05-22T00:42:51.045Z,17.23
2023-05-22T00:45:40.289Z,17.24
2023-05-22T00:48:29.595Z,17.24
2023-05-22T00:51:18.942Z,17.24
2023-05-22T00:54:11.012Z,17.23
2023-05-22T00:57:04.378Z,17.24
2023-05-22T00:59:54.049Z,17.28
2023-05-22T01:02:44.214Z,17.32
2023-05-22T01:05:34.525Z,17.31
2023-05-22T01:08:23.914Z,17.39
2023-05-22T01:11:19.531Z,17.35
2023-05-22T01:14:19.301Z,17.32
2023-05-22T01:17:22.845Z,17.37
2023-05-22T01:20:22.618Z,17.39
2023-05-22T01:24:11.886Z,17.43
2023-05-22T01:27:35.240Z,17.41
2023-05-22T01:30:48.612Z,17.49
2023-05-22T01:33:43.766Z,17.45
2023-05-22T01:36:38.422Z,17.49
2023-05-22T01:39:29.178Z,17.43
2023-05-22T01:42:19.222Z,17.41
2023-05-22T01:45:12.414Z,17.37
2023-05-22T01:48:03.286Z,17.33
2023-05-22T01:50:54.978Z,17.28
2023-05-22T01:53:54.887Z,17.27
2023-05-22T01:56:54.996Z,17.21
2023-05-22T01:59:51.051Z,17.14
2023-05-22T02:02:44.010Z,17.16
2023-05-22T02:05:39.812Z,17.13
2023-05-22T02:08:31.321Z,17.12
2023-05-22T02:11:24.222Z,17.08
2023-05-22T02:14:16.469Z,17.03
2023-05-22T02:17:07.779Z,16.98
2023-05-22T02:19:57.366Z,16.97
2023-05-22T02:22:49.195Z,16.88
2023-05-22T02:25:38.760Z,16.84
2023-05-22T02:28:30.006Z,16.72
2023-05-22T02:31:19.555Z,16.60
2023-05-22T02:34:08.953Z,16.46
2023-05-22T02:37:00.174Z,16.32
2023-05-22T02:39:50.864Z,16.29
2023-05-22T02:42:40.367Z,16.16
2023-05-22T02:45:31.024Z,16.09
2023-05-22T02:48:20.498Z,16.03
2023-05-22T02:51:09.811Z,15.89
2023-05-22T02:53:59.514Z,15.81
2023-05-22T02:56:50.270Z,15.71
2023-05-22T02:59:39.524Z,15.57
2023-05-22T03:02:30.220Z,15.55
2023-05-22T03:05:19.895Z,15.47
2023-05-22T03:08:09.231Z,15.42
2023-05-22T03:10:59.640Z,15.35
2023-05-22T03:13:50.583Z,15.42
2023-05-22T03:16:39.953Z,15.46
2023-05-22T03:19:29.520Z,15.45
2023-05-22T03:22:19.677Z,15.48
2023-05-22T03:25:11.140Z,15.44
2023-05-22T03:28:01.119Z,15.43
2023-05-22T03:30:55.778Z,15.38
2023-05-22T03:33:50.029Z,15.32
2023-05-22T03:36:39.744Z,15.33
2023-05-22T03:39:29.031Z,15.14
2023-05-22T03:42:26.912Z,15.14
2023-05-22T03:45:16.331Z,15.16
2023-05-22T03:48:07.403Z,15.07
2023-05-22T03:50:57.090Z,15.05
2023-05-22T03:53:46.364Z,14.98
2023-05-22T03:56:38.523Z,14.86
2023-05-22T03:59:27.837Z,14.81
2023-05-22T04:02:18.422Z,14.78
2023-05-22T04:05:11.574Z,14.73
2023-05-22T04:08:00.689Z,14.76
2023-05-22T04:10:50.296Z,14.73
2023-05-22T04:13:39.896Z,14.72
2023-05-22T04:16:29.313Z,14.66
2023-05-22T04:19:18.779Z,14.63
2023-05-22T04:22:09.589Z,14.58
2023-05-22T04:24:59.413Z,14.51
2023-05-22T04:27:49.320Z,14.41
2023-05-22T04:30:40.422Z,14.44
2023-05-22T04:33:30.436Z,14.45
2023-05-22T04:36:22.441Z,14.43
2023-05-22T04:39:15.256Z,14.37
2023-05-22T04:42:06.066Z,14.40
2023-05-22T04:44:58.189Z,14.37
2023-05-22T04:47:47.526Z,14.43
2023-05-22T04:50:39.051Z,14.38
2023-05-22T04:53:30.508Z,14.31
2023-05-22T04:56:31.932Z,14.27
2023-05-22T04:59:26.714Z,14.27
2023-05-22T05:02:16.275Z,14.18
2023-05-22T05:05:06.191Z,14.12
2023-05-22T05:07:55.533Z,14.21
2023-05-22T05:10:46.078Z,14.26
2023-05-22T05:13:37.494Z,14.35
2023-05-22T05:16:27.136Z,14.29
2023-05-22T05:19:16.940Z,14.35
2023-05-22T05:22:06.648Z,14.31
2023-05-22T05:24:56.356Z,14.45
2023-05-22T05:27:46.774Z,14.39
2023-05-22T05:30:41.369Z,14.51
2023-05-22T05:33:42.067Z,14.50
2023-05-22T05:36:37.710Z,14.51
2023-05-22T05:39:35.159Z,14.51
2023-05-22T05:42:30.529Z,14.31
2023-05-22T05:45:27.757Z,14.57
2023-05-22T05:48:22.854Z,14.54
2023-05-22T05:51:12.425Z,14.54
2023-05-22T05:54:09.780Z,14.58
2023-05-22T05:57:03.441Z,14.58
2023-05-22T05:59:53.522Z,14.64
2023-05-22T06:03:02.127Z,14.63
2023-05-22T06:06:14.216Z,14.67
2023-05-22T06:09:26.983Z,14.67
2023-05-22T06:12:32.383Z,14.63
2023-05-22T06:15:25.087Z,14.54
2023-05-22T06:18:17.428Z,14.63
2023-05-22T06:21:16.171Z,14.57
2023-05-22T06:24:08.368Z,14.60
2023-05-22T06:26:57.924Z,14.57
2023-05-22T06:29:48.019Z,14.50
2023-05-22T06:32:42.750Z,14.51
2023-05-22T06:35:34.552Z,14.47
2023-05-22T06:38:29.689Z,14.44
2023-05-22T06:41:24.205Z,14.43
2023-05-22T06:44:13.719Z,14.54
2023-05-22T06:47:05.942Z,14.52
2023-05-22T06:49:56.280Z,14.68
2023-05-22T06:52:45.998Z,14.60
2023-05-22T06:55:36.806Z,14.57
2023-05-22T06:58:34.026Z,14.57
2023-05-22T07:01:26.085Z,14.69
2023-05-22T07:04:26.518Z,14.78
2023-05-22T07:07:24.893Z,14.80
2023-05-22T07:10:15.286Z,14.92
2023-05-22T07:13:06.069Z,15.00
2023-05-22T07:15:56.819Z,14.92
2023-05-22T07:18:47.569Z,15.00
2023-05-22T07:21:37.253Z,15.00
2023-05-22T07:24:27.759Z,15.17
2023-05-22T07:27:17.756Z,15.31
2023-05-22T07:30:12.695Z,15.50
2023-05-22T07:33:03.710Z,15.54
2023-05-22T07:35:53.271Z,15.60
2023-05-22T07:38:43.049Z,15.74
2023-05-22T07:41:32.522Z,15.75
2023-05-22T07:44:22.098Z,15.79
2023-05-22T07:47:12.916Z,15.71
2023-05-22T07:50:04.516Z,15.80
2023-05-22T07:52:56.231Z,15.82
2023-05-22T07:55:46.044Z,15.91
2023-05-22T07:58:37.169Z,16.07
2023-05-22T08:01:26.455Z,16.39
2023-05-22T08:04:17.512Z,16.64
2023-05-22T08:07:07.233Z,16.92
2023-05-22T08:09:56.531Z,17.29
2023-05-22T08:12:46.174Z,17.27
2023-05-22T08:15:35.966Z,17.34
2023-05-22T08:18:28.063Z,17.54
2023-05-22T08:21:18.908Z,17.76
2023-05-22T08:24:09.016Z,17.92
2023-05-22T08:27:00.721Z,17.86
2023-05-22T08:29:50.222Z,17.95
2023-05-22T08:32:39.616Z,18.10
2023-05-22T08:35:29.018Z,18.20
2023-05-22T08:38:19.888Z,18.32
2023-05-22T08:41:10.745Z,18.66
2023-05-22T08:44:00.660Z,18.73
2023-05-22T08:46:52.206Z,18.80
2023-05-22T08:49:41.883Z,19.06
2023-05-22T08:52:38.672Z,18.93
2023-05-22T08:55:30.002Z,19.08
2023-05-22T08:58:19.764Z,19.22
2023-05-22T09:01:10.218Z,19.60
2023-05-22T09:04:03.084Z,19.91
2023-05-22T09:06:52.926Z,19.94
2023-05-22T09:09:42.506Z,20.21
2023-05-22T09:12:34.054Z,20.37
2023-05-22T09:15:24.649Z,20.64
2023-05-22T09:18:14.126Z,20.79
2023-05-22T09:21:06.834Z,20.87
2023-05-22T09:24:02.401Z,20.98
2023-05-22T09:26:53.087Z,21.27
2023-05-22T09:29:54.839Z,21.35
2023-05-22T09:32:45.027Z,21.18
2023-05-22T09:35:34.667Z,21.60
2023-05-22T09:38:27.908Z,21.70
2023-05-22T09:41:23.613Z,21.91
2023-05-22T09:44:17.763Z,22.17
2023-05-22T09:47:10.059Z,22.15
2023-05-22T09:50:00.199Z,22.12
2023-05-22T09:52:52.246Z,22.22
2023-05-22T09:55:41.684Z,22.27
2023-05-22T09:58:35.016Z,22.53
2023-05-22T10:01:26.222Z,22.14
2023-05-22T10:04:19.822Z,21.44
2023-05-22T10:07:11.719Z,20.82
2023-05-22T10:10:07.906Z,20.67
2023-05-22T10:13:02.193Z,20.89
2023-05-22T10:15:52.199Z,20.80
2023-05-22T10:18:42.446Z,20.92
2023-05-22T10:21:34.046Z,21.31
2023-05-22T10:24:24.221Z,21.09
2023-05-22T10:27:13.622Z,21.08
2023-05-22T10:30:29.230Z,21.50
2023-05-22T10:33:50.422Z,22.19
2023-05-22T10:37:13.181Z,22.63
2023-05-22T10:40:13.859Z,22.69
2023-05-22T10:43:05.276Z,22.55
2023-05-22T10:46:05.240Z,22.48
2023-05-22T10:48:56.549Z,22.08
2023-05-22T10:51:47.350Z,21.94
2023-05-22T10:54:45.298Z,21.89
2023-05-22T10:57:35.691Z,21.91
2023-05-22T11:00:26.388Z,22.00
2023-05-22T11:03:19.598Z,21.93
2023-05-22T11:06:29.078Z,21.49
2023-05-22T11:09:23.020Z,21.33
2023-05-22T11:12:19.677Z,21.36
2023-05-22T11:15:11.039Z,21.80
2023-05-22T11:18:06.925Z,22.25
2023-05-22T11:20:56.451Z,22.58
2023-05-22T11:23:46.673Z,22.92
2023-05-22T11:26:37.999Z,23.17
2023-05-22T11:29:28.292Z,23.33
2023-05-22T11:32:21.032Z,23.60
2023-05-22T11:35:14.833Z,23.97
2023-05-22T11:38:07.422Z,24.32
2023-05-22T11:40:56.784Z,24.92
2023-05-22T11:43:47.540Z,25.22
2023-05-22T11:46:36.964Z,24.40
2023-05-22T11:49:26.766Z,24.41
2023-05-22T11:52:18.472Z,24.36
2023-05-22T11:55:09.339Z,24.78
2023-05-22T11:57:59.556Z,24.65
2023-05-22T12:00:50.323Z,24.52
2023-05-22T12:03:39.841Z,24.12
2023-05-22T12:06:33.343Z,24.04
2023-05-22T12:09:23.391Z,23.68
2023-05-22T12:12:13.053Z,24.18
2023-05-22T12:15:02.404Z,24.21
2023-05-22T12:17:57.271Z,24.21
2023-05-22T12:20:46.705Z,24.66
2023-05-22T12:23:36.033Z,24.73
2023-05-22T12:26:25.338Z,24.40
2023-05-22T12:29:15.325Z,24.81
2023-05-22T12:32:06.797Z,24.82
2023-05-22T12:35:00.546Z,24.67
2023-05-22T12:37:50.976Z,24.38
2023-05-22T12:40:40.605Z,24.70
2023-05-22T12:43:30.356Z,25.03
2023-05-22T12:46:19.842Z,25.06
2023-05-22T12:49:09.104Z,25.08
2023-05-22T12:51:59.824Z,24.83
2023-05-22T12:54:49.168Z,24.54
2023-05-22T12:57:38.614Z,24.57
2023-05-22T13:00:28.044Z,24.72
2023-05-22T13:03:17.745Z,24.93
2023-05-22T13:06:07.158Z,24.85
2023-05-22T13:08:58.784Z,24.44
2023-05-22T13:11:48.532Z,24.18
2023-05-22T13:14:39.034Z,23.96
2023-05-22T13:17:28.726Z,23.85
2023-05-22T13:20:18.049Z,23.93
2023-05-22T13:23:07.443Z,23.68
2023-05-22T13:25:58.091Z,23.95
2023-05-22T13:28:47.404Z,23.92
2023-05-22T13:31:38.061Z,23.42
2023-05-22T13:34:27.488Z,22.85
2023-05-22T13:37:17.290Z,22.48
2023-05-22T13:40:08.508Z,22.31
2023-05-22T13:42:59.305Z,22.22
2023-05-22T13:45:48.676Z,22.38
2023-05-22T13:48:38.078Z,22.73
2023-05-22T13:51:27.461Z,23.34
2023-05-22T13:54:17.110Z,23.47
2023-05-22T13:57:07.082Z,23.16
2023-05-22T13:59:58.213Z,23.01
2023-05-22T14:02:48.037Z,22.84
2023-05-22T14:05:37.926Z,23.04
2023-05-22T14:08:27.485Z,23.34
2023-05-22T14:11:16.746Z,23.18
2023-05-22T14:14:06.011Z,22.86
2023-05-22T14:16:56.814Z,22.61
2023-05-22T14:19:51.943Z,23.00
2023-05-22T14:22:55.871Z,23.26
2023-05-22T14:25:48.530Z,23.29
2023-05-22T14:28:38.020Z,23.00
2023-05-22T14:31:30.211Z,22.65
2023-05-22T14:34:21.102Z,22.54
2023-05-22T14:37:10.317Z,22.45
2023-05-22T14:39:59.706Z,22.32
2023-05-22T14:42:50.341Z,22.18
2023-05-22T14:45:40.758Z,21.98
2023-05-22T14:48:30.322Z,22.02
2023-05-22T14:51:23.495Z,22.27
2023-05-22T14:54:14.460Z,22.91
2023-05-22T14:57:05.388Z,23.04
2023-05-22T14:59:54.689Z,23.30
2023-05-22T15:02:44.207Z,22.91
2023-05-22T15:05:33.613Z,22.57
2023-05-22T15:08:24.617Z,22.33
2023-05-22T15:11:13.909Z,22.22
2023-05-22T15:14:03.323Z,22.48
2023-05-22T15:16:52.752Z,22.67
2023-05-22T15:19:43.920Z,22.96
2023-05-22T15:22:33.374Z,22.94
2023-05-22T15:25:24.629Z,22.75
2023-05-22T15:28:14.187Z,22.84
2023-05-22T15:31:03.543Z,23.03
2023-05-22T15:33:52.940Z,22.97
2023-05-22T15:36:42.534Z,22.93
2023-05-22T15:39:31.968Z,22.77
2023-05-22T15:42:23.144Z,22.76
2023-05-22T15:45:13.318Z,22.46
2023-05-22T15:48:02.770Z,22.30
2023-05-22T15:50:52.359Z,22.22
2023-05-22T15:53:42.184Z,22.07
2023-05-22T15:56:31.444Z,22.01
2023-05-22T15:59:22.163Z,22.03
2023-05-22T16:02:11.400Z,22.19
2023-05-22T16:05:00.752Z,22.25
2023-05-22T16:07:50.137Z,22.16
2023-05-22T16:10:41.908Z,21.95
2023-05-22T16:13:31.475Z,21.79
2023-05-22T16:16:22.284Z,21.67
2023-05-22T16:19:29.267Z,21.56
2023-05-22T16:22:19.515Z,21.55
2023-05-22T16:25:11.282Z,21.59
2023-05-22T16:28:00.813Z,21.62
2023-05-22T16:30:50.289Z,21.68
2023-05-22T16:33:41.023Z,21.80
2023-05-22T16:36:30.252Z,21.75
2023-05-22T16:39:19.748Z,21.77
2023-05-22T16:42:09.132Z,21.62
2023-05-22T16:44:58.600Z,21.52
2023-05-22T16:47:47.969Z,21.61
2023-05-22T16:50:38.709Z,21.69
2023-05-22T16:53:28.111Z,21.74
2023-05-22T16:56:20.437Z,21.69
2023-05-22T16:59:09.679Z,21.62
2023-05-22T17:01:59.098Z,21.47
2023-05-22T17:04:49.093Z,21.24
2023-05-22T17:07:39.847Z,20.92
2023-05-22T17:10:29.208Z,20.84
2023-05-22T17:13:21.043Z,20.77
2023-05-22T17:16:10.638Z,20.77
2023-05-22T17:19:00.079Z,20.59
2023-05-22T17:21:49.384Z,20.57
2023-05-22T17:24:40.106Z,20.56
2023-05-22T17:27:35.977Z,20.60
2023-05-22T17:30:26.052Z,20.64
2023-05-22T17:33:15.484Z,20.67
2023-05-22T17:36:05.168Z,20.75
2023-05-22T17:38:54.489Z,20.89
2023-05-22T17:41:45.218Z,20.88
2023-05-22T17:44:34.765Z,20.92
2023-05-22T17:47:24.047Z,20.90
2023-05-22T17:50:13.930Z,20.93
2023-05-22T17:53:03.404Z,20.95
2023-05-22T17:55:53.480Z,20.83
2023-05-22T17:58:44.299Z,20.86
2023-05-22T18:01:33.581Z,20.78
2023-05-22T18:04:22.933Z,20.72
2023-05-22T18:07:12.186Z,20.76
2023-05-22T18:10:01.508Z,20.67
2023-05-22T18:12:50.809Z,20.65
2023-05-22T18:15:41.734Z,20.61
2023-05-22T18:18:37.059Z,20.49
2023-05-22T18:21:26.416Z,20.52
2023-05-22T18:24:16.456Z,20.51
2023-05-22T18:27:06.245Z,20.56
2023-05-22T18:29:56.513Z,20.47
2023-05-22T18:32:50.025Z,20.56
2023-05-22T18:35:41.325Z,20.50
2023-05-22T18:38:30.816Z,20.42
2023-05-22T18:41:31.172Z,20.36
2023-05-22T18:44:20.748Z,20.29
2023-05-22T18:47:10.330Z,20.17
2023-05-22T18:50:01.224Z,20.12
2023-05-22T18:52:50.610Z,20.06
2023-05-22T18:55:46.562Z,20.02
2023-05-22T18:58:37.760Z,19.96
2023-05-22T19:01:27.136Z,19.96
2023-05-22T19:04:18.802Z,19.97
2023-05-22T19:07:09.633Z,19.95
2023-05-22T19:10:00.767Z,19.95
2023-05-22T19:12:50.125Z,19.91
2023-05-22T19:15:39.442Z,19.82
2023-05-22T19:18:28.924Z,19.66
2023-05-22T19:21:18.461Z,19.56
2023-05-22T19:24:09.804Z,19.49
2023-05-22T19:26:59.272Z,19.39
2023-05-22T19:29:48.650Z,19.27
2023-05-22T19:32:38.242Z,19.27
2023-05-22T19:35:27.624Z,19.30
2023-05-22T19:38:16.986Z,19.22
2023-05-22T19:41:07.650Z,19.14
2023-05-22T19:43:57.232Z,19.06
2023-05-22T19:46:46.717Z,18.96
2023-05-22T19:49:37.276Z,18.84
2023-05-22T19:52:27.004Z,18.82
2023-05-22T19:55:16.481Z,18.64
2023-05-22T19:58:07.263Z,18.58
2023-05-22T20:00:56.661Z,18.54
2023-05-22T20:04:04.778Z,18.42
2023-05-22T20:06:54.225Z,18.23
2023-05-22T20:09:49.388Z,18.25
2023-05-22T20:12:39.221Z,18.15
2023-05-22T20:15:30.678Z,18.07
2023-05-22T20:18:20.865Z,17.95
2023-05-22T20:21:17.247Z,17.85
2023-05-22T20:24:17.536Z,17.83
2023-05-22T20:27:07.238Z,17.74
2023-05-22T20:29:59.838Z,17.71
2023-05-22T20:32:50.688Z,17.76
2023-05-22T20:35:41.210Z,17.68
2023-05-22T20:38:30.896Z,17.58
2023-05-22T20:41:20.605Z,17.49
2023-05-22T20:44:10.689Z,17.46
2023-05-22T20:47:03.324Z,17.43
2023-05-22T20:49:54.300Z,17.39
2023-05-22T20:52:45.947Z,17.39
2023-05-22T20:55:43.173Z,17.32
2023-05-22T20:58:33.041Z,17.18
2023-05-22T21:01:43.705Z,17.22
2023-05-22T21:04:33.785Z,17.21
2023-05-22T21:07:24.718Z,17.15
2023-05-22T21:10:14.565Z,17.06
2023-05-22T21:13:04.156Z,16.97
2023-05-22T21:15:53.877Z,16.91
2023-05-22T21:18:44.223Z,16.82
2023-05-22T21:21:33.976Z,16.74
2023-05-22T21:24:25.458Z,16.74
2023-05-22T21:27:15.023Z,16.65
2023-05-22T21:30:05.354Z,16.64
2023-05-22T21:32:55.182Z,16.58
2023-05-22T21:35:45.071Z,16.40
2023-05-22T21:38:34.526Z,16.54
2023-05-22T21:41:26.151Z,16.44
2023-05-22T21:44:16.402Z,16.44
2023-05-22T21:47:06.662Z,16.36
2023-05-22T21:49:56.550Z,16.35
2023-05-22T21:52:45.886Z,16.37
2023-05-22T21:55:36.117Z,16.23
2023-05-22T21:58:27.107Z,16.20
2023-05-22T22:01:16.669Z,16.19
2023-05-22T22:04:06.494Z,16.09
2023-05-22T22:06:56.068Z,16.12
2023-05-22T22:09:45.974Z,16.03
2023-05-22T22:12:35.924Z,15.97
2023-05-22T22:15:27.159Z,15.98
2023-05-22T22:18:17.669Z,15.82
2023-05-22T22:21:07.186Z,15.77
2023-05-22T22:23:56.981Z,15.74
2023-05-22T22:26:47.961Z,15.63
2023-05-22T22:29:38.699Z,15.70
2023-05-22T22:32:29.843Z,15.65
2023-05-22T22:35:20.220Z,15.59
2023-05-22T22:38:09.625Z,15.50
2023-05-22T22:40:59.259Z,15.38
2023-05-22T22:43:48.519Z,15.36
2023-05-22T22:46:40.186Z,15.27
2023-05-22T22:49:31.710Z,15.18
2023-05-22T22:52:21.059Z,15.16
2023-05-22T22:55:11.241Z,15.13
2023-05-22T22:58:01.993Z,15.12
2023-05-22T23:00:51.347Z,15.10
2023-05-22T23:03:40.662Z,15.03
2023-05-22T23:06:33.050Z,15.03
2023-05-22T23:09:22.480Z,14.92
2023-05-22T23:12:11.859Z,14.90
2023-05-22T23:15:01.258Z,14.77
2023-05-22T23:17:52.030Z,14.88
2023-05-22T23:20:41.512Z,14.74
2023-05-22T23:23:32.291Z,14.79
2023-05-22T23:26:21.571Z,14.73
2023-05-22T23:29:11.080Z,14.55
2023-05-22T23:32:00.663Z,14.53
2023-05-22T23:34:50.175Z,14.58
2023-05-22T23:37:39.652Z,14.41
2023-05-22T23:40:30.478Z,14.44
2023-05-22T23:43:20.872Z,14.48
2023-05-22T23:46:13.243Z,14.47
2023-05-22T23:49:02.969Z,14.46
2023-05-22T23:51:52.318Z,14.33
2023-05-22T23:54:41.639Z,14.26
2023-05-22T23:57:32.422Z,14.36
